sensor_id;sensor_type;location;lat;lon;timestamp;pressure;altitude;pressure_sealevel;temperature;humidity
55759;BME280;41678;52.126;20.664;2024-03-29T00:02:03;98642.28;;;9.23;100.00
55759;BME280;41678;52.126;20.664;2024-03-29T00:07:24;98627.81;;;9.09;100.00
55759;BME280;41678;52.126;20.664;2024-03-29T00:12:47;98627.78;;;9.11;100.00
55759;BME280;41678;52.126;20.664;2024-03-29T00:18:19;98674.16;;;9.39;100.00
55759;BME280;41678;52.126;20.664;2024-03-29T00:23:41;98682.00;;;9.40;100.00
55759;BME280;41678;52.126;20.664;2024-03-29T00:29:04;98683.66;;;9.43;100.00
55759;BME280;41678;52.126;20.664;2024-03-29T00:34:24;98704.53;;;9.47;100.00
55759;BME280;41678;52.126;20.664;2024-03-29T00:39:45;98719.34;;;9.50;100.00
55759;BME280;41678;52.126;20.664;2024-03-29T00:45:07;98722.00;;;9.48;100.00
55759;BME280;41678;52.126;20.664;2024-03-29T00:50:33;98729.19;;;9.43;100.00
55759;BME280;41678;52.126;20.664;2024-03-29T00:55:54;98748.28;;;9.48;100.00
55759;BME280;41678;52.126;20.664;2024-03-29T01:01:20;98735.34;;;9.42;100.00
55759;BME280;41678;52.126;20.664;2024-03-29T01:06:42;98757.34;;;9.38;100.00
55759;BME280;41678;52.126;20.664;2024-03-29T01:12:08;98776.41;;;9.45;100.00
55759;BME280;41678;52.126;20.664;2024-03-29T01:17:29;98786.06;;;9.44;100.00
55759;BME280;41678;52.126;20.664;2024-03-29T01:22:54;98804.59;;;9.40;100.00
55759;BME280;41678;52.126;20.664;2024-03-29T01:28:29;98803.59;;;9.44;100.00
55759;BME280;41678;52.126;20.664;2024-03-29T01:33:53;98821.22;;;9.40;100.00
55759;BME280;41678;52.126;20.664;2024-03-29T01:39:19;98827.34;;;9.39;100.00
55759;BME280;41678;52.126;20.664;2024-03-29T01:44:49;98807.50;;;9.30;100.00
55759;BME280;41678;52.126;20.664;2024-03-29T01:50:14;98808.69;;;9.20;100.00
55759;BME280;41678;52.126;20.664;2024-03-29T01:55:40;98822.66;;;9.20;100.00
55759;BME280;41678;52.126;20.664;2024-03-29T02:01:04;98831.41;;;9.21;100.00
55759;BME280;41678;52.126;20.664;2024-03-29T02:06:40;98846.41;;;9.17;100.00
55759;BME280;41678;52.126;20.664;2024-03-29T02:12:00;98884.19;;;9.43;100.00
55759;BME280;41678;52.126;20.664;2024-03-29T02:17:22;98873.47;;;9.19;100.00
55759;BME280;41678;52.126;20.664;2024-03-29T02:22:47;98908.97;;;9.33;100.00
55759;BME280;41678;52.126;20.664;2024-03-29T02:28:12;98902.25;;;9.23;100.00
55759;BME280;41678;52.126;20.664;2024-03-29T02:33:32;98939.38;;;9.42;100.00
55759;BME280;41678;52.126;20.664;2024-03-29T02:38:59;98926.72;;;9.25;100.00
55759;BME280;41678;52.126;20.664;2024-03-29T02:44:22;98927.63;;;9.24;100.00
55759;BME280;41678;52.126;20.664;2024-03-29T02:49:43;98940.94;;;9.17;100.00
55759;BME280;41678;52.126;20.664;2024-03-29T02:55:03;98954.72;;;9.26;100.00
55759;BME280;41678;52.126;20.664;2024-03-29T03:00:23;98969.63;;;9.24;100.00
55759;BME280;41678;52.126;20.664;2024-03-29T03:05:51;98975.88;;;9.19;100.00
55759;BME280;41678;52.126;20.664;2024-03-29T03:11:15;98983.75;;;9.19;100.00
55759;BME280;41678;52.126;20.664;2024-03-29T03:16:35;99014.97;;;9.30;100.00
55759;BME280;41678;52.126;20.664;2024-03-29T03:21:55;99033.34;;;9.32;100.00
55759;BME280;41678;52.126;20.664;2024-03-29T03:27:16;99038.78;;;9.26;100.00
55759;BME280;41678;52.126;20.664;2024-03-29T03:32:36;99052.84;;;9.21;100.00
55759;BME280;41678;52.126;20.664;2024-03-29T03:37:59;99070.44;;;9.19;100.00
55759;BME280;41678;52.126;20.664;2024-03-29T03:43:20;99064.47;;;9.13;100.00
55759;BME280;41678;52.126;20.664;2024-03-29T03:48:39;99067.19;;;9.08;100.00
55759;BME280;41678;52.126;20.664;2024-03-29T03:53:59;99076.16;;;9.01;100.00
55759;BME280;41678;52.126;20.664;2024-03-29T03:59:22;99076.28;;;8.95;100.00
55759;BME280;41678;52.126;20.664;2024-03-29T04:04:42;99072.91;;;8.89;100.00
55759;BME280;41678;52.126;20.664;2024-03-29T04:10:02;99095.78;;;8.84;100.00
55759;BME280;41678;52.126;20.664;2024-03-29T04:21:46;99101.59;;;8.59;100.00
55759;BME280;41678;52.126;20.664;2024-03-29T04:27:06;99125.31;;;8.55;100.00
55759;BME280;41678;52.126;20.664;2024-03-29T04:32:25;99152.50;;;8.49;100.00
55759;BME280;41678;52.126;20.664;2024-03-29T04:37:45;99166.66;;;8.42;100.00
55759;BME280;41678;52.126;20.664;2024-03-29T04:43:05;99156.53;;;8.23;100.00
55759;BME280;41678;52.126;20.664;2024-03-29T04:48:26;99163.72;;;8.13;100.00
55759;BME280;41678;52.126;20.664;2024-03-29T04:53:45;99169.97;;;8.07;100.00
55759;BME280;41678;52.126;20.664;2024-03-29T04:59:05;99180.50;;;8.04;100.00
55759;BME280;41678;52.126;20.664;2024-03-29T05:04:27;99187.47;;;8.05;100.00
55759;BME280;41678;52.126;20.664;2024-03-29T05:09:47;99180.66;;;7.95;100.00
55759;BME280;41678;52.126;20.664;2024-03-29T05:15:07;99183.34;;;7.92;100.00
55759;BME280;41678;52.126;20.664;2024-03-29T05:20:27;99179.91;;;7.90;100.00
55759;BME280;41678;52.126;20.664;2024-03-29T05:25:47;99185.09;;;7.91;100.00
55759;BME280;41678;52.126;20.664;2024-03-29T05:31:12;99192.81;;;8.01;100.00
55759;BME280;41678;52.126;20.664;2024-03-29T05:36:34;99199.72;;;8.03;100.00
55759;BME280;41678;52.126;20.664;2024-03-29T05:41:55;99195.38;;;8.02;100.00
55759;BME280;41678;52.126;20.664;2024-03-29T05:47:15;99193.66;;;8.01;100.00
55759;BME280;41678;52.126;20.664;2024-03-29T05:52:35;99203.06;;;8.13;100.00
55759;BME280;41678;52.126;20.664;2024-03-29T05:57:55;99196.88;;;8.16;100.00
55759;BME280;41678;52.126;20.664;2024-03-29T06:03:15;99221.88;;;8.34;100.00
55759;BME280;41678;52.126;20.664;2024-03-29T06:08:35;99219.13;;;8.40;100.00
55759;BME280;41678;52.126;20.664;2024-03-29T06:13:55;99229.47;;;8.51;100.00
55759;BME280;41678;52.126;20.664;2024-03-29T06:19:29;99231.16;;;8.54;100.00
55759;BME280;41678;52.126;20.664;2024-03-29T06:24:49;99238.00;;;8.61;100.00
55759;BME280;41678;52.126;20.664;2024-03-29T06:30:11;99239.50;;;8.73;100.00
55759;BME280;41678;52.126;20.664;2024-03-29T06:35:31;99259.34;;;8.86;100.00
55759;BME280;41678;52.126;20.664;2024-03-29T06:40:56;99265.28;;;8.95;100.00
55759;BME280;41678;52.126;20.664;2024-03-29T06:46:16;99284.25;;;9.09;100.00
55759;BME280;41678;52.126;20.664;2024-03-29T06:51:41;99289.41;;;9.14;100.00
55759;BME280;41678;52.126;20.664;2024-03-29T06:57:02;99292.66;;;9.27;100.00
55759;BME280;41678;52.126;20.664;2024-03-29T07:02:22;99282.88;;;9.32;100.00
55759;BME280;41678;52.126;20.664;2024-03-29T07:07:42;99280.88;;;9.43;100.00
55759;BME280;41678;52.126;20.664;2024-03-29T07:13:13;99284.16;;;9.53;100.00
55759;BME280;41678;52.126;20.664;2024-03-29T07:18:35;99272.56;;;9.62;100.00
55759;BME280;41678;52.126;20.664;2024-03-29T07:23:58;99269.72;;;9.71;100.00
55759;BME280;41678;52.126;20.664;2024-03-29T07:29:20;99292.94;;;9.90;100.00
55759;BME280;41678;52.126;20.664;2024-03-29T07:34:48;99284.75;;;10.01;100.00
55759;BME280;41678;52.126;20.664;2024-03-29T07:40:09;99272.28;;;10.09;100.00
55759;BME280;41678;52.126;20.664;2024-03-29T07:45:31;99276.28;;;10.24;100.00
55759;BME280;41678;52.126;20.664;2024-03-29T07:50:52;99279.41;;;10.39;100.00
55759;BME280;41678;52.126;20.664;2024-03-29T07:56:14;99276.75;;;10.40;100.00
55759;BME280;41678;52.126;20.664;2024-03-29T08:01:36;99277.28;;;10.53;100.00
55759;BME280;41678;52.126;20.664;2024-03-29T08:06:56;99297.50;;;10.84;100.00
55759;BME280;41678;52.126;20.664;2024-03-29T08:12:17;99307.47;;;11.03;100.00
55759;BME280;41678;52.126;20.664;2024-03-29T08:17:37;99308.69;;;11.23;100.00
55759;BME280;41678;52.126;20.664;2024-03-29T08:22:59;99282.75;;;11.37;100.00
55759;BME280;41678;52.126;20.664;2024-03-29T08:28:54;99287.34;;;11.60;100.00
55759;BME280;41678;52.126;20.664;2024-03-29T08:34:16;99288.84;;;11.68;100.00
55759;BME280;41678;52.126;20.664;2024-03-29T08:39:36;99309.22;;;11.89;100.00
55759;BME280;41678;52.126;20.664;2024-03-29T08:45:03;99334.06;;;12.11;100.00
55759;BME280;41678;52.126;20.664;2024-03-29T08:50:27;99329.19;;;12.25;100.00
55759;BME280;41678;52.126;20.664;2024-03-29T08:55:47;99317.03;;;12.21;100.00
55759;BME280;41678;52.126;20.664;2024-03-29T09:01:18;99329.81;;;12.33;100.00
55759;BME280;41678;52.126;20.664;2024-03-29T09:06:42;99337.38;;;12.44;100.00
55759;BME280;41678;52.126;20.664;2024-03-29T09:12:02;99337.72;;;12.60;100.00
55759;BME280;41678;52.126;20.664;2024-03-29T09:17:26;99351.16;;;12.78;100.00
55759;BME280;41678;52.126;20.664;2024-03-29T09:22:51;99345.81;;;12.80;100.00
55759;BME280;41678;52.126;20.664;2024-03-29T09:28:13;99357.81;;;12.88;100.00
55759;BME280;41678;52.126;20.664;2024-03-29T09:33:33;99337.53;;;12.91;100.00
55759;BME280;41678;52.126;20.664;2024-03-29T09:38:54;99328.78;;;13.12;100.00
55759;BME280;41678;52.126;20.664;2024-03-29T09:44:14;99363.50;;;13.27;100.00
55759;BME280;41678;52.126;20.664;2024-03-29T09:49:41;99349.59;;;13.22;100.00
55759;BME280;41678;52.126;20.664;2024-03-29T09:55:09;99347.75;;;13.24;100.00
55759;BME280;41678;52.126;20.664;2024-03-29T10:00:33;99370.72;;;13.47;100.00
55759;BME280;41678;52.126;20.664;2024-03-29T10:06:05;99330.25;;;13.45;100.00
55759;BME280;41678;52.126;20.664;2024-03-29T10:11:33;99333.22;;;13.59;100.00
55759;BME280;41678;52.126;20.664;2024-03-29T10:17:01;99328.41;;;13.69;100.00
55759;BME280;41678;52.126;20.664;2024-03-29T10:22:24;99348.84;;;13.88;100.00
55759;BME280;41678;52.126;20.664;2024-03-29T10:27:45;99327.06;;;13.81;100.00
55759;BME280;41678;52.126;20.664;2024-03-29T10:33:08;99341.56;;;13.93;100.00
55759;BME280;41678;52.126;20.664;2024-03-29T10:38:32;99330.88;;;13.96;100.00
55759;BME280;41678;52.126;20.664;2024-03-29T10:44:27;99343.72;;;14.06;100.00
55759;BME280;41678;52.126;20.664;2024-03-29T10:49:51;99336.47;;;14.11;100.00
55759;BME280;41678;52.126;20.664;2024-03-29T10:55:15;99332.69;;;14.16;100.00
55759;BME280;41678;52.126;20.664;2024-03-29T11:00:41;99336.72;;;14.25;100.00
55759;BME280;41678;52.126;20.664;2024-03-29T11:06:12;99338.16;;;14.34;100.00
55759;BME280;41678;52.126;20.664;2024-03-29T11:11:44;99362.63;;;14.60;100.00
55759;BME280;41678;52.126;20.664;2024-03-29T11:17:06;99351.06;;;14.63;100.00
55759;BME280;41678;52.126;20.664;2024-03-29T11:22:27;99321.13;;;14.61;100.00
55759;BME280;41678;52.126;20.664;2024-03-29T11:28:04;99306.81;;;14.65;100.00
55759;BME280;41678;52.126;20.664;2024-03-29T11:39:26;99321.81;;;14.86;100.00
55759;BME280;41678;52.126;20.664;2024-03-29T11:44:46;99341.94;;;14.91;100.00
55759;BME280;41678;52.126;20.664;2024-03-29T11:50:07;99346.16;;;14.95;100.00
55759;BME280;41678;52.126;20.664;2024-03-29T11:55:28;99348.13;;;15.10;100.00
55759;BME280;41678;52.126;20.664;2024-03-29T12:00:50;99345.31;;;15.13;100.00
55759;BME280;41678;52.126;20.664;2024-03-29T12:06:24;99343.44;;;15.15;100.00
55759;BME280;41678;52.126;20.664;2024-03-29T12:11:44;99360.66;;;15.26;100.00
55759;BME280;41678;52.126;20.664;2024-03-29T12:17:15;99360.81;;;15.23;100.00
55759;BME280;41678;52.126;20.664;2024-03-29T12:22:36;99353.50;;;15.28;100.00
55759;BME280;41678;52.126;20.664;2024-03-29T12:27:58;99354.28;;;15.30;100.00
55759;BME280;41678;52.126;20.664;2024-03-29T12:33:19;99373.16;;;15.43;100.00
55759;BME280;41678;52.126;20.664;2024-03-29T12:38:41;99371.50;;;15.40;100.00
55759;BME280;41678;52.126;20.664;2024-03-29T12:44:02;99373.81;;;15.48;100.00
55759;BME280;41678;52.126;20.664;2024-03-29T12:49:34;99378.91;;;15.53;100.00
55759;BME280;41678;52.126;20.664;2024-03-29T12:55:07;99351.06;;;15.42;100.00
55759;BME280;41678;52.126;20.664;2024-03-29T13:00:33;99361.41;;;15.49;100.00
55759;BME280;41678;52.126;20.664;2024-03-29T13:05:59;99349.09;;;15.48;100.00
55759;BME280;41678;52.126;20.664;2024-03-29T13:11:23;99360.03;;;15.59;100.00
55759;BME280;41678;52.126;20.664;2024-03-29T13:27:28;99385.34;;;15.66;100.00
55759;BME280;41678;52.126;20.664;2024-03-29T13:33:20;99393.78;;;15.75;100.00
55759;BME280;41678;52.126;20.664;2024-03-29T13:38:40;99399.81;;;15.78;100.00
55759;BME280;41678;52.126;20.664;2024-03-29T13:44:04;99392.06;;;15.73;100.00
55759;BME280;41678;52.126;20.664;2024-03-29T13:49:30;99394.31;;;15.64;100.00
55759;BME280;41678;52.126;20.664;2024-03-29T13:54:50;99394.31;;;15.64;100.00
55759;BME280;41678;52.126;20.664;2024-03-29T14:00:11;99385.19;;;15.69;100.00
55759;BME280;41678;52.126;20.664;2024-03-29T14:05:34;99387.06;;;15.67;100.00
55759;BME280;41678;52.126;20.664;2024-03-29T14:10:54;99373.88;;;15.66;100.00
55759;BME280;41678;52.126;20.664;2024-03-29T14:16:14;99377.25;;;15.69;100.00
55759;BME280;41678;52.126;20.664;2024-03-29T14:21:37;99358.09;;;15.63;100.00
55759;BME280;41678;52.126;20.664;2024-03-29T14:26:57;99382.34;;;15.74;100.00
55759;BME280;41678;52.126;20.664;2024-03-29T14:32:23;99365.06;;;15.65;100.00
55759;BME280;41678;52.126;20.664;2024-03-29T14:38:05;99357.38;;;15.59;100.00
55759;BME280;41678;52.126;20.664;2024-03-29T14:43:25;99365.91;;;15.66;100.00
55759;BME280;41678;52.126;20.664;2024-03-29T14:48:44;99366.69;;;15.68;100.00
55759;BME280;41678;52.126;20.664;2024-03-29T14:54:04;99369.59;;;15.63;100.00
55759;BME280;41678;52.126;20.664;2024-03-29T14:59:24;99355.81;;;15.55;100.00
55759;BME280;41678;52.126;20.664;2024-03-29T15:04:45;99360.59;;;15.66;100.00
55759;BME280;41678;52.126;20.664;2024-03-29T15:10:06;99362.19;;;15.70;100.00
55759;BME280;41678;52.126;20.664;2024-03-29T15:15:29;99367.72;;;15.65;100.00
55759;BME280;41678;52.126;20.664;2024-03-29T15:20:57;99370.38;;;15.65;100.00
55759;BME280;41678;52.126;20.664;2024-03-29T15:26:17;99370.78;;;15.56;100.00
55759;BME280;41678;52.126;20.664;2024-03-29T15:31:40;99366.41;;;15.55;100.00
55759;BME280;41678;52.126;20.664;2024-03-29T15:37:00;99356.38;;;15.42;100.00
55759;BME280;41678;52.126;20.664;2024-03-29T15:42:19;99363.41;;;15.43;100.00
55759;BME280;41678;52.126;20.664;2024-03-29T15:47:39;99346.91;;;15.37;100.00
55759;BME280;41678;52.126;20.664;2024-03-29T15:52:59;99354.81;;;15.38;100.00
55759;BME280;41678;52.126;20.664;2024-03-29T15:58:19;99346.41;;;15.28;100.00
55759;BME280;41678;52.126;20.664;2024-03-29T16:03:39;99349.22;;;15.25;100.00
55759;BME280;41678;52.126;20.664;2024-03-29T16:09:00;99348.84;;;15.14;100.00
55759;BME280;41678;52.126;20.664;2024-03-29T16:14:22;99349.03;;;15.09;100.00
55759;BME280;41678;52.126;20.664;2024-03-29T16:19:43;99347.63;;;15.02;100.00
55759;BME280;41678;52.126;20.664;2024-03-29T16:25:06;99337.28;;;14.96;100.00
55759;BME280;41678;52.126;20.664;2024-03-29T16:30:26;99332.41;;;14.86;100.00
55759;BME280;41678;52.126;20.664;2024-03-29T16:35:47;99327.50;;;14.77;100.00
55759;BME280;41678;52.126;20.664;2024-03-29T16:41:07;99329.59;;;14.69;100.00
55759;BME280;41678;52.126;20.664;2024-03-29T16:46:27;99330.16;;;14.56;100.00
55759;BME280;41678;52.126;20.664;2024-03-29T16:51:47;99327.81;;;14.49;100.00
55759;BME280;41678;52.126;20.664;2024-03-29T16:57:07;99341.25;;;14.44;100.00
55759;BME280;41678;52.126;20.664;2024-03-29T17:02:26;99340.19;;;14.27;100.00
55759;BME280;41678;52.126;20.664;2024-03-29T17:07:46;99347.56;;;14.19;100.00
55759;BME280;41678;52.126;20.664;2024-03-29T17:13:06;99354.91;;;14.12;100.00
55759;BME280;41678;52.126;20.664;2024-03-29T17:18:26;99350.00;;;14.03;100.00
55759;BME280;41678;52.126;20.664;2024-03-29T17:23:46;99339.00;;;13.92;100.00
55759;BME280;41678;52.126;20.664;2024-03-29T17:29:06;99334.94;;;13.83;100.00
55759;BME280;41678;52.126;20.664;2024-03-29T17:34:26;99337.28;;;13.68;100.00
55759;BME280;41678;52.126;20.664;2024-03-29T17:39:46;99345.75;;;13.54;100.00
55759;BME280;41678;52.126;20.664;2024-03-29T17:45:06;99345.13;;;13.48;100.00
55759;BME280;41678;52.126;20.664;2024-03-29T17:50:27;99353.50;;;13.35;100.00
55759;BME280;41678;52.126;20.664;2024-03-29T17:55:47;99360.09;;;13.23;100.00
55759;BME280;41678;52.126;20.664;2024-03-29T18:01:07;99362.47;;;13.07;100.00
55759;BME280;41678;52.126;20.664;2024-03-29T18:06:27;99362.78;;;12.98;100.00
55759;BME280;41678;52.126;20.664;2024-03-29T18:11:47;99365.81;;;12.87;100.00
55759;BME280;41678;52.126;20.664;2024-03-29T18:17:07;99373.16;;;12.79;100.00
55759;BME280;41678;52.126;20.664;2024-03-29T18:22:27;99360.31;;;12.68;100.00
55759;BME280;41678;52.126;20.664;2024-03-29T18:27:47;99351.06;;;12.56;100.00
55759;BME280;41678;52.126;20.664;2024-03-29T18:33:07;99349.66;;;12.45;100.00
55759;BME280;41678;52.126;20.664;2024-03-29T18:38:27;99339.59;;;12.30;100.00
55759;BME280;41678;52.126;20.664;2024-03-29T18:43:53;99354.91;;;12.20;100.00
55759;BME280;41678;52.126;20.664;2024-03-29T18:49:13;99342.97;;;12.08;100.00
55759;BME280;41678;52.126;20.664;2024-03-29T18:54:33;99345.81;;;12.02;100.00
55759;BME280;41678;52.126;20.664;2024-03-29T18:59:53;99338.78;;;12.01;100.00
55759;BME280;41678;52.126;20.664;2024-03-29T19:05:13;99329.38;;;11.92;100.00
55759;BME280;41678;52.126;20.664;2024-03-29T19:10:33;99318.31;;;11.81;100.00
55759;BME280;41678;52.126;20.664;2024-03-29T19:15:53;99326.22;;;11.81;100.00
55759;BME280;41678;52.126;20.664;2024-03-29T19:21:13;99325.31;;;11.82;100.00
55759;BME280;41678;52.126;20.664;2024-03-29T19:26:33;99336.69;;;11.84;100.00
55759;BME280;41678;52.126;20.664;2024-03-29T19:31:52;99318.53;;;11.74;100.00
55759;BME280;41678;52.126;20.664;2024-03-29T19:37:12;99323.75;;;11.76;100.00
55759;BME280;41678;52.126;20.664;2024-03-29T19:42:32;99321.94;;;11.78;100.00
55759;BME280;41678;52.126;20.664;2024-03-29T19:47:52;99311.56;;;11.72;100.00
55759;BME280;41678;52.126;20.664;2024-03-29T19:53:15;99305.56;;;11.67;100.00
55759;BME280;41678;52.126;20.664;2024-03-29T19:58:34;99298.81;;;11.58;100.00
55759;BME280;41678;52.126;20.664;2024-03-29T20:03:54;99304.25;;;11.53;100.00
55759;BME280;41678;52.126;20.664;2024-03-29T20:09:14;99290.38;;;11.46;100.00
55759;BME280;41678;52.126;20.664;2024-03-29T20:14:34;99296.72;;;11.41;100.00
55759;BME280;41678;52.126;20.664;2024-03-29T20:19:54;99290.66;;;11.37;100.00
55759;BME280;41678;52.126;20.664;2024-03-29T20:25:13;99308.47;;;11.30;100.00
55759;BME280;41678;52.126;20.664;2024-03-29T20:30:33;99312.88;;;11.28;100.00
55759;BME280;41678;52.126;20.664;2024-03-29T20:35:53;99312.03;;;11.28;100.00
55759;BME280;41678;52.126;20.664;2024-03-29T20:41:12;99315.38;;;11.33;100.00
55759;BME280;41678;52.126;20.664;2024-03-29T20:46:34;99305.03;;;11.27;100.00
55759;BME280;41678;52.126;20.664;2024-03-29T20:51:54;99317.41;;;11.25;100.00
55759;BME280;41678;52.126;20.664;2024-03-29T20:57:14;99315.69;;;11.24;100.00
55759;BME280;41678;52.126;20.664;2024-03-29T21:02:34;99317.44;;;11.23;100.00
55759;BME280;41678;52.126;20.664;2024-03-29T21:08:12;99315.69;;;11.24;100.00
55759;BME280;41678;52.126;20.664;2024-03-29T21:13:32;99307.81;;;11.22;100.00
55759;BME280;41678;52.126;20.664;2024-03-29T21:18:52;99315.75;;;11.20;100.00
55759;BME280;41678;52.126;20.664;2024-03-29T21:24:12;99315.72;;;11.22;100.00
55759;BME280;41678;52.126;20.664;2024-03-29T21:29:31;99322.75;;;11.22;100.00
55759;BME280;41678;52.126;20.664;2024-03-29T21:34:51;99322.94;;;11.15;100.00
55759;BME280;41678;52.126;20.664;2024-03-29T21:40:12;99326.56;;;11.11;100.00
55759;BME280;41678;52.126;20.664;2024-03-29T21:45:31;99321.41;;;11.08;100.00
55759;BME280;41678;52.126;20.664;2024-03-29T21:50:51;99325.78;;;11.08;100.00
55759;BME280;41678;52.126;20.664;2024-03-29T21:56:12;99325.13;;;10.99;100.00
55759;BME280;41678;52.126;20.664;2024-03-29T22:01:32;99323.63;;;10.90;100.00
55759;BME280;41678;52.126;20.664;2024-03-29T22:06:52;99307.94;;;10.87;100.00
55759;BME280;41678;52.126;20.664;2024-03-29T22:12:12;99310.78;;;10.80;100.00
55759;BME280;41678;52.126;20.664;2024-03-29T22:17:32;99312.47;;;10.82;100.00
55759;BME280;41678;52.126;20.664;2024-03-29T22:22:53;99316.09;;;10.78;100.00
55759;BME280;41678;52.126;20.664;2024-03-29T22:28:13;99324.06;;;10.75;100.00
55759;BME280;41678;52.126;20.664;2024-03-29T22:33:36;99323.31;;;10.71;100.00
55759;BME280;41678;52.126;20.664;2024-03-29T22:38:56;99332.97;;;10.71;100.00
55759;BME280;41678;52.126;20.664;2024-03-29T22:44:16;99335.66;;;10.69;100.00
55759;BME280;41678;52.126;20.664;2024-03-29T22:49:35;99343.69;;;10.65;100.00
55759;BME280;41678;52.126;20.664;2024-03-29T22:54:55;99330.75;;;10.55;100.00
55759;BME280;41678;52.126;20.664;2024-03-29T23:00:15;99336.94;;;10.53;100.00
55759;BME280;41678;52.126;20.664;2024-03-29T23:05:35;99339.84;;;10.43;100.00
55759;BME280;41678;52.126;20.664;2024-03-29T23:10:55;99359.94;;;10.46;100.00
55759;BME280;41678;52.126;20.664;2024-03-29T23:16:15;99342.56;;;10.39;100.00
55759;BME280;41678;52.126;20.664;2024-03-29T23:21:36;99352.25;;;10.37;100.00
55759;BME280;41678;52.126;20.664;2024-03-29T23:26:56;99344.41;;;10.35;100.00
55759;BME280;41678;52.126;20.664;2024-03-29T23:32:16;99342.78;;;10.29;100.00
55759;BME280;41678;52.126;20.664;2024-03-29T23:37:36;99340.34;;;10.21;100.00
55759;BME280;41678;52.126;20.664;2024-03-29T23:42:56;99342.94;;;10.23;100.00
55759;BME280;41678;52.126;20.664;2024-03-29T23:48:16;99324.72;;;10.15;100.00
55759;BME280;41678;52.126;20.664;2024-03-29T23:53:36;99318.72;;;10.10;100.00
55759;BME280;41678;52.126;20.664;2024-03-29T23:58:56;99319.63;;;10.09;100.00
